Nearby METAR Reports

 

KFFZ - Mesa/Falcon Fld, Arizona, USA
Distance from station: ENE 9mi, 15km
Updated: Fri, 25-May-2018 5:25am MST
Clear
Clear
 Wind from ENE
Wind: ENE 5 mph , 7 km/h
Temperature: 72°F , 22°C
Dew Point: 30°F , -1°C
Humidity: 22%
Barometer: 29.98 inHg , 1015.2 hPa
Clouds: Clear
Visibility: 30 miles , 48 km
2018/05/25 12:25 KFFZ 251225Z 06004KT 30SM SKC 22/M01 A2998
KIWA - Chandler/Mesa, Arizona, USA
Distance from station: ESE 14mi, 22km
Updated: Fri, 25-May-2018 4:50am MST
Clear
Clear
 Wind from E
Wind: E 8 mph , 13 km/h
Temperature: 64°F , 18°C
Dew Point: 27°F , -3°C
Humidity: 24%
Barometer: 29.98 inHg , 1015.2 hPa
Clouds: Clear
Visibility: 20 miles , 32 km
2018/05/25 11:50 KIWA 251150Z 10007KT 20SM SKC 18/M03 A2998
 
KFLG - Flagstaff, Arizona, USA
Distance from station: N 120mi, 193km
Updated: Fri, 25-May-2018 4:57am MST
Clear
Clear
 Wind from calm
Wind: Calm
Temperature: 37°F , 3°C
Dew Point: 18°F , -8°C
Humidity: 45%
Barometer: 30.24 inHg , 1024 hPa
Clouds: Clear
Visibility: 10 miles , 16 km
2018/05/25 11:57 KFLG 251157Z AUTO 00000KT 10SM CLR 03/M08 A3024 RMK AO2 SLP164 T00331078 10100 20028 53001
KTUS - Tucson, Arizona, USA
Distance from station: SSE 102mi, 164km
Updated: Fri, 25-May-2018 4:53am MST
Clear
Clear
 Wind from SE
Wind: SE 7 mph , 11 km/h
Temperature: 64°F , 18°C
Dew Point: 21°F , -6°C
Humidity: 19%
Barometer: 30.07 inHg , 1018.3 hPa
Clouds: Clear
Visibility: 10 miles , 16 km
2018/05/25 11:53 KTUS 251153Z 14006KT 10SM CLR 18/M06 A3007 RMK AO2 SLP138 T01781056 10261 20178 53004
 
KSOW - Show Low Municip, Arizona, USA
Distance from station: ENE 122mi, 196km
Updated: Fri, 25-May-2018 5:35am MST
Clear
Clear
 Wind from SSW
Wind: SSW 6 mph , 9 km/h
Temperature: 46°F , 8°C
Wind Chill: 43°F , 6°C
Dew Point: 21°F , -6°C
Humidity: 37%
Barometer: 30.25 inHg , 1024.4 hPa
Clouds: Clear
Visibility: 10 miles , 16 km
2018/05/25 12:35 KSOW 251235Z AUTO 20005KT 10SM CLR 08/M06 A3025 RMK AO2
KINW - Winslow, Arizona, USA
Distance from station: NNE 130mi, 209km
Updated: Fri, 25-May-2018 4:56am MST
Clear
Clear
 Wind from SSE
Wind: SSE 10 mph , 17 km/h
Temperature: 52°F , 11°C
Dew Point: 21°F , -6°C
Humidity: 30%
Barometer: 30.15 inHg , 1021 hPa
Clouds: Clear
Visibility: 10 miles , 16 km
2018/05/25 11:56 KINW 251156Z AUTO 16009KT 10SM CLR 11/M06 A3015 RMK AO2 SLP146 T01111061 10161 20100 53001
 
KPRC - Prescott, Arizona, USA
Distance from station: NNW 92mi, 148km
Updated: Fri, 25-May-2018 4:53am MST
Clear
Clear
 Wind from S
Wind: S 5 mph , 7 km/h
Temperature: 48°F , 9°C
Wind Chill: 46°F , 8°C
Dew Point: 27°F , -3°C
Humidity: 43%
Barometer: 30.13 inHg , 1020.3 hPa
Clouds: Clear
Visibility: 10 miles , 16 km
2018/05/25 11:53 KPRC 251153Z AUTO 18004KT 10SM CLR 09/M03 A3013 RMK AO2 SLP136 T00941028 10150 20089 57003
KPAN - Payson, Arizona, USA
Distance from station: NNE 66mi, 106km
Updated: Fri, 25-May-2018 5:35am MST
Clear
Clear
 Wind from calm
Wind: Calm
Temperature: 52°F , 11°C
Dew Point: 21°F , -6°C
Humidity: 30%
Barometer: 30.17 inHg , 1021.7 hPa
Clouds: Clear
Visibility: 10 miles , 16 km
2018/05/25 12:35 KPAN 251235Z AUTO 00000KT 10SM CLR 11/M06 A3017 RMK AO2
 
KSEZ - Sedona, Arizona, USA
Distance from station: N 100mi, 161km
Updated: Fri, 25-May-2018 5:15am MST
Clear
Clear
 Wind from NNE
Wind: NNE 3 mph , 6 km/h
Temperature: 61°F , 16°C
Dew Point: 23°F , -5°C
Humidity: 23%
Barometer: 30.14 inHg , 1020.7 hPa
Clouds: Clear
Visibility: 10 miles , 16 km
2018/05/25 12:15 KSEZ 251215Z AUTO 03003KT 10SM CLR 16/M05 A3014 RMK AO2
KSAD - Safford, Arizona, USA
Distance from station: ESE 150mi, 241km
Updated: Fri, 25-May-2018 4:51am MST
Clear
Clear
 Wind from SSE
Wind: SSE 3 mph , 6 km/h
Temperature: 61°F , 16°C
Dew Point: 19°F , -7°C
Humidity: 20%
Barometer: 30.04 inHg , 1017.3 hPa
Clouds: Clear
Visibility: 10 miles , 16 km
2018/05/25 11:51 KSAD 251151Z AUTO 15003KT 10SM CLR 16/M07 A3004 RMK AO2 SLP125 T01561072 10261 20156 53004